Time;durP1;ratioP1;P1;durP2;ratioP2;P2;SDS_P1;SDS_P2;PMS_P1;PMS_P2;Temp;Humidity;BMP_temperature;BMP_pressure;BME280_temperature;BME280_humidity;BME280_pressure;Samples;Min_cycle;Max_cycle;Signal;HPM_P1;HPM_P2
2021/10/07 00:01:25;;;;;;;5.75;2.38;;;11.70;99.90;;;;;;5010845;28;20221;-68
2021/10/07 00:03:53;;;;;;;4.07;2.05;;;11.60;99.90;;;;;;5012304;28;20050;-68
2021/10/07 00:06:20;;;;;;;6.47;2.97;;;11.70;99.90;;;;;;5010720;28;20026;-69
2021/10/07 00:08:46;;;;;;;4.15;2.50;;;11.70;99.90;;;;;;5011438;28;20033;-69
2021/10/07 00:11:12;;;;;;;5.15;2.80;;;11.80;99.90;;;;;;5010684;28;20405;-69
2021/10/07 00:13:39;;;;;;;8.38;2.58;;;11.70;99.90;;;;;;5012602;28;20034;-69
2021/10/07 00:16:06;;;;;;;4.68;3.17;;;11.80;99.90;;;;;;5011301;28;20152;-68
2021/10/07 00:18:36;;;;;;;6.72;3.30;;;11.70;99.90;;;;;;5010715;28;20033;-68
2021/10/07 00:21:03;;;;;;;5.95;2.72;;;11.70;99.90;;;;;;5011249;28;20364;-68
2021/10/07 00:23:31;;;;;;;4.35;3.20;;;11.80;99.90;;;;;;5010180;28;20030;-69
2021/10/07 00:25:57;;;;;;;7.15;2.80;;;11.80;99.90;;;;;;5010975;28;20032;-68
2021/10/07 00:28:24;;;;;;;4.50;3.05;;;11.70;99.90;;;;;;5010176;28;20026;-69
2021/10/07 00:30:52;;;;;;;4.88;2.83;;;11.80;99.90;;;;;;5012054;28;20058;-68
2021/10/07 00:33:23;;;;;;;8.52;3.58;;;11.60;99.90;;;;;;5011718;28;20054;-69
2021/10/07 00:36:02;;;;;;;3.83;3.50;;;11.60;99.90;;;;;;5010827;28;20026;-69
2021/10/07 00:41:12;;;;;;;6.70;3.08;;;11.60;99.90;;;;;;5011133;28;20036;-67
2021/10/07 00:43:37;;;;;;;6.28;3.03;;;11.60;99.90;;;;;;5010605;28;20033;-69
2021/10/07 00:46:03;;;;;;;7.78;3.17;;;11.60;99.90;;;;;;5011739;28;20026;-68
2021/10/07 00:48:29;;;;;;;4.53;3.10;;;11.60;99.90;;;;;;5009804;28;20034;-70
2021/10/07 00:50:54;;;;;;;7.35;3.97;;;11.60;99.90;;;;;;5011696;28;20026;-69
2021/10/07 00:53:20;;;;;;;8.23;4.40;;;11.70;99.90;;;;;;5010919;28;20026;-69
2021/10/07 00:55:47;;;;;;;7.93;4.18;;;11.60;99.90;;;;;;5010250;28;20022;-69
2021/10/07 00:58:15;;;;;;;7.68;4.40;;;11.60;99.90;;;;;;5011447;28;20026;-69
2021/10/07 01:00:41;;;;;;;8.18;4.07;;;11.60;99.90;;;;;;5010252;28;20420;-69
2021/10/07 01:03:08;;;;;;;5.47;3.55;;;11.70;99.90;;;;;;5011384;28;20041;-68
2021/10/07 01:05:34;;;;;;;6.47;3.65;;;11.70;99.90;;;;;;5011442;28;20048;-69
2021/10/07 01:08:00;;;;;;;8.38;4.30;;;11.60;99.90;;;;;;5011541;28;20030;-69
2021/10/07 01:10:26;;;;;;;7.63;4.70;;;11.70;99.90;;;;;;5010960;28;20022;-68
2021/10/07 01:12:52;;;;;;;9.52;3.90;;;11.70;99.90;;;;;;5010093;28;20025;-69
2021/10/07 01:15:18;;;;;;;6.13;4.32;;;11.70;99.90;;;;;;5010786;28;20173;-68
2021/10/07 01:17:44;;;;;;;6.20;3.90;;;11.70;99.90;;;;;;5010122;28;20100;-69
2021/10/07 01:20:12;;;;;;;5.20;3.75;;;11.60;99.90;;;;;;5011215;28;20037;-82
2021/10/07 01:22:37;;;;;;;6.82;4.10;;;11.70;99.90;;;;;;5011423;28;20355;-67
2021/10/07 01:25:04;;;;;;;7.15;4.47;;;11.60;99.90;;;;;;5011470;28;20106;-67
2021/10/07 01:27:31;;;;;;;6.55;4.47;;;11.70;99.90;;;;;;5010283;28;20042;-67
2021/10/07 01:30:04;;;;;;;6.72;4.47;;;11.70;99.90;;;;;;5009546;28;20462;-69
2021/10/07 01:32:34;;;;;;;10.35;4.78;;;11.80;99.90;;;;;;5009096;28;20030;-70
2021/10/07 01:34:59;;;;;;;5.43;3.70;;;11.80;99.90;;;;;;5009815;28;20034;-69
2021/10/07 01:37:25;;;;;;;5.45;4.20;;;11.80;99.90;;;;;;5009251;28;20026;-69
2021/10/07 01:39:50;;;;;;;13.02;4.40;;;11.70;99.90;;;;;;5010006;28;20113;-70
2021/10/07 01:42:16;;;;;;;11.43;4.22;;;11.80;99.90;;;;;;5009302;28;20025;-70
2021/10/07 01:44:42;;;;;;;6.38;3.75;;;11.80;99.90;;;;;;5009967;28;20032;-69
2021/10/07 01:47:07;;;;;;;6.93;3.53;;;11.80;99.90;;;;;;5026358;28;20527;-69
2021/10/07 01:49:33;;;;;;;6.55;3.60;;;11.80;99.90;;;;;;5010452;28;20105;-69
2021/10/07 01:51:59;;;;;;;5.47;3.67;;;11.80;99.90;;;;;;5013273;28;20039;-69
2021/10/07 01:54:24;;;;;;;7.82;4.30;;;11.80;99.90;;;;;;5013165;28;20111;-69
2021/10/07 01:56:50;;;;;;;7.38;4.10;;;11.80;99.90;;;;;;5015208;28;20309;-69
2021/10/07 01:59:16;;;;;;;6.35;4.55;;;11.70;99.90;;;;;;5012829;28;20047;-69
2021/10/07 02:01:42;;;;;;;7.82;3.83;;;11.60;99.90;;;;;;5013552;28;20132;-68
2021/10/07 02:04:07;;;;;;;7.43;3.95;;;11.60;99.90;;;;;;5015126;28;20069;-69
2021/10/07 02:06:36;;;;;;;5.45;3.85;;;11.60;99.90;;;;;;5012655;28;20034;-69
2021/10/07 02:09:06;;;;;;;6.45;4.10;;;11.60;99.90;;;;;;5013423;28;20029;-69
2021/10/07 02:11:33;;;;;;;6.68;3.70;;;11.60;99.90;;;;;;5014172;28;20046;-69
2021/10/07 02:14:00;;;;;;;7.88;4.10;;;11.80;99.90;;;;;;5013089;28;20034;-69
2021/10/07 02:16:29;;;;;;;4.95;4.10;;;11.70;99.90;;;;;;5012506;28;20026;-68
2021/10/07 02:18:55;;;;;;;5.68;3.50;;;11.80;99.90;;;;;;5014331;28;20033;-69
2021/10/07 02:21:21;;;;;;;7.20;4.07;;;11.80;99.90;;;;;;5012777;28;20029;-69
2021/10/07 02:23:46;;;;;;;8.13;4.72;;;11.70;99.90;;;;;;5014484;28;20340;-69
2021/10/07 02:26:12;;;;;;;6.82;4.43;;;11.70;99.90;;;;;;5012145;28;20026;-69
2021/10/07 02:28:37;;;;;;;7.03;3.85;;;11.70;99.90;;;;;;5012415;28;20038;-68
2021/10/07 02:31:03;;;;;;;5.32;3.90;;;11.70;99.90;;;;;;5014142;28;20042;-69
2021/10/07 02:33:30;;;;;;;6.38;3.90;;;11.60;99.90;;;;;;5013150;28;20030;-69
2021/10/07 02:35:56;;;;;;;6.32;4.22;;;11.60;99.90;;;;;;5012995;28;20121;-69
2021/10/07 02:38:21;;;;;;;5.72;4.38;;;11.50;99.90;;;;;;5012273;28;20072;-69
2021/10/07 02:40:47;;;;;;;9.80;4.80;;;11.50;99.90;;;;;;5013058;28;20080;-69
2021/10/07 02:43:12;;;;;;;7.93;4.68;;;11.50;99.90;;;;;;5012890;28;20114;-69
2021/10/07 02:45:38;;;;;;;8.48;3.90;;;11.50;99.90;;;;;;5013628;28;20032;-69
2021/10/07 02:48:04;;;;;;;9.98;4.68;;;11.50;99.90;;;;;;5013965;28;20026;-69
2021/10/07 02:50:30;;;;;;;8.43;5.10;;;11.60;99.90;;;;;;5012204;28;20033;-69
2021/10/07 02:52:56;;;;;;;7.97;4.95;;;11.50;99.90;;;;;;5012632;28;20061;-69
2021/10/07 02:55:22;;;;;;;7.40;5.28;;;11.50;99.90;;;;;;5013281;28;20499;-68
2021/10/07 02:57:48;;;;;;;10.00;5.97;;;11.40;99.90;;;;;;5013822;28;20092;-68
2021/10/07 03:00:17;;;;;;;11.57;5.32;;;11.30;99.90;;;;;;5013344;28;20112;-69
2021/10/07 03:02:43;;;;;;;10.50;6.28;;;11.30;99.90;;;;;;5012731;28;20042;-68
2021/10/07 03:05:08;;;;;;;9.88;6.80;;;11.40;99.90;;;;;;5011865;28;20479;-68
2021/10/07 03:07:34;;;;;;;7.75;4.82;;;11.50;99.90;;;;;;5011606;28;20030;-69
2021/10/07 03:10:00;;;;;;;10.68;6.45;;;11.50;99.90;;;;;;5012061;28;20030;-68
2021/10/07 03:12:26;;;;;;;13.13;6.28;;;11.40;99.90;;;;;;5012745;28;20072;-68
2021/10/07 03:14:52;;;;;;;10.60;5.55;;;11.30;99.90;;;;;;5012089;28;20069;-69
2021/10/07 03:17:17;;;;;;;8.75;5.60;;;11.30;99.90;;;;;;5011571;28;20054;-77
2021/10/07 03:19:44;;;;;;;9.95;6.47;;;11.20;99.90;;;;;;5012005;28;20363;-68
2021/10/07 03:22:10;;;;;;;9.63;6.20;;;11.30;99.90;;;;;;5013367;28;20097;-68
2021/10/07 03:24:36;;;;;;;7.05;5.50;;;11.40;99.90;;;;;;5011351;28;20056;-68
2021/10/07 03:27:03;;;;;;;9.30;5.35;;;11.40;99.90;;;;;;5011592;28;20029;-68
2021/10/07 03:29:30;;;;;;;10.65;5.43;;;11.30;99.90;;;;;;5011194;28;20419;-68
2021/10/07 03:31:56;;;;;;;8.93;6.13;;;11.30;99.90;;;;;;5011919;28;20135;-68
2021/10/07 03:34:21;;;;;;;10.98;5.80;;;11.20;99.90;;;;;;5012280;28;20081;-69
2021/10/07 03:36:47;;;;;;;9.23;6.00;;;11.30;99.90;;;;;;5013016;28;20026;-68
2021/10/07 03:39:13;;;;;;;9.52;5.72;;;11.40;99.90;;;;;;5012950;28;20057;-68
2021/10/07 03:41:38;;;;;;;10.38;6.10;;;11.30;99.90;;;;;;5011111;28;20501;-69
2021/10/07 03:44:04;;;;;;;6.45;5.22;;;11.30;99.90;;;;;;5011636;28;20443;-68
2021/10/07 03:46:30;;;;;;;9.25;5.68;;;11.30;99.90;;;;;;5012216;28;20101;-69
2021/10/07 03:48:55;;;;;;;8.95;6.45;;;11.20;99.90;;;;;;5011565;28;20026;-69
2021/10/07 03:51:21;;;;;;;11.88;5.75;;;11.20;99.90;;;;;;5012311;28;20032;-69
2021/10/07 03:53:47;;;;;;;10.57;6.18;;;11.20;99.90;;;;;;5012882;28;20077;-69
2021/10/07 03:56:13;;;;;;;10.23;6.70;;;11.20;99.90;;;;;;5012500;28;20038;-69
2021/10/07 03:58:38;;;;;;;8.85;6.43;;;11.20;99.90;;;;;;5010706;28;20072;-68
2021/10/07 04:01:04;;;;;;;10.68;6.53;;;11.20;99.90;;;;;;5012469;28;20034;-69
2021/10/07 04:03:29;;;;;;;10.50;6.50;;;11.20;99.90;;;;;;5010458;28;20090;-69
2021/10/07 04:05:56;;;;;;;15.15;7.97;;;11.20;99.90;;;;;;5012123;28;20030;-68
2021/10/07 04:08:22;;;;;;;12.73;7.40;;;11.10;99.90;;;;;;5011869;28;20018;-69
2021/10/07 04:10:51;;;;;;;10.05;7.00;;;11.10;99.90;;;;;;5011420;28;20117;-68
2021/10/07 04:13:22;;;;;;;15.20;7.30;;;11.10;99.90;;;;;;5010177;28;20076;-69
2021/10/07 04:15:49;;;;;;;10.80;7.03;;;11.20;99.90;;;;;;5012266;28;20161;-68
2021/10/07 04:18:16;;;;;;;8.73;5.82;;;11.30;99.90;;;;;;5012378;28;20319;-68
2021/10/07 04:20:43;;;;;;;10.55;6.90;;;11.30;99.90;;;;;;5011836;28;20113;-68
2021/10/07 04:23:10;;;;;;;12.95;7.03;;;11.30;99.90;;;;;;5012062;28;20025;-68
2021/10/07 04:25:36;;;;;;;9.73;7.18;;;11.40;99.90;;;;;;5011864;28;20131;-68
2021/10/07 04:28:04;;;;;;;8.88;7.35;;;11.40;99.90;;;;;;5012082;28;20479;-68
2021/10/07 04:30:30;;;;;;;8.35;6.35;;;11.30;99.90;;;;;;5011382;28;20041;-69
2021/10/07 04:32:55;;;;;;;11.75;7.78;;;11.30;99.90;;;;;;5011763;28;20025;-69
2021/10/07 04:35:21;;;;;;;14.57;6.95;;;11.30;99.90;;;;;;5011554;28;20108;-69
2021/10/07 04:37:47;;;;;;;11.48;6.63;;;11.30;99.90;;;;;;5012217;28;20088;-69
2021/10/07 04:40:14;;;;;;;6.72;6.00;;;11.30;99.90;;;;;;5011934;28;20476;-69
2021/10/07 04:42:39;;;;;;;9.52;5.93;;;11.30;99.90;;;;;;5010058;28;20065;-68
2021/10/07 04:45:05;;;;;;;11.07;6.80;;;11.40;99.90;;;;;;5011915;28;20050;-68
2021/10/07 04:47:31;;;;;;;6.78;6.07;;;11.40;99.90;;;;;;5009952;28;20068;-68
2021/10/07 04:49:57;;;;;;;9.18;5.95;;;11.40;99.90;;;;;;5010110;28;20028;-69
2021/10/07 04:52:22;;;;;;;11.80;6.35;;;11.40;99.90;;;;;;5010626;28;20022;-68
2021/10/07 04:54:48;;;;;;;9.13;5.70;;;11.50;99.90;;;;;;5010283;28;20100;-68
2021/10/07 04:57:14;;;;;;;8.85;6.07;;;11.50;99.90;;;;;;5010552;28;20471;-69
2021/10/07 04:59:40;;;;;;;8.15;5.72;;;11.50;99.90;;;;;;5009508;28;20080;-69
2021/10/07 05:02:06;;;;;;;9.57;6.68;;;11.40;99.90;;;;;;5010295;28;20402;-69
2021/10/07 05:04:31;;;;;;;8.00;6.82;;;11.40;99.90;;;;;;5009785;28;20068;-69
2021/10/07 05:06:57;;;;;;;10.25;6.90;;;11.30;99.90;;;;;;5011615;28;20377;-69
2021/10/07 05:09:23;;;;;;;10.75;6.30;;;11.30;99.90;;;;;;5010316;28;20113;-69
2021/10/07 05:11:49;;;;;;;9.35;7.20;;;11.20;99.90;;;;;;5011632;28;20025;-69
2021/10/07 05:14:14;;;;;;;9.55;6.22;;;11.20;99.90;;;;;;5010105;28;20038;-69
2021/10/07 05:16:40;;;;;;;12.00;7.03;;;11.20;99.90;;;;;;5009567;28;20030;-69
2021/10/07 05:19:06;;;;;;;8.43;6.18;;;11.20;99.90;;;;;;5010275;28;20029;-69
2021/10/07 05:21:31;;;;;;;9.23;6.78;;;11.20;99.90;;;;;;5011124;28;20328;-68
2021/10/07 05:23:57;;;;;;;10.13;6.28;;;11.20;99.90;;;;;;5010982;28;20030;-68
2021/10/07 05:26:23;;;;;;;8.32;6.95;;;11.20;99.90;;;;;;5011485;28;20022;-69
2021/10/07 05:28:49;;;;;;;11.95;6.72;;;11.20;99.90;;;;;;5010648;28;20479;-69
2021/10/07 05:31:14;;;;;;;10.10;6.35;;;11.20;99.90;;;;;;5010059;28;20022;-69
2021/10/07 05:33:40;;;;;;;10.25;6.35;;;11.20;99.90;;;;;;5008921;28;20034;-68
2021/10/07 05:36:06;;;;;;;11.38;6.65;;;11.20;99.90;;;;;;5011436;28;20026;-69
2021/10/07 05:38:32;;;;;;;10.50;6.03;;;11.30;99.90;;;;;;5010971;28;20116;-69
2021/10/07 05:41:00;;;;;;;9.00;6.20;;;11.30;99.90;;;;;;5011163;28;20026;-68
2021/10/07 05:43:26;;;;;;;8.65;6.90;;;11.30;99.90;;;;;;5009467;28;20117;-69
2021/10/07 05:45:51;;;;;;;12.35;6.47;;;11.20;99.90;;;;;;5010790;28;20109;-68
2021/10/07 05:48:17;;;;;;;9.55;6.53;;;11.30;99.90;;;;;;5009660;28;20515;-68
2021/10/07 05:50:43;;;;;;;9.13;6.68;;;11.20;99.90;;;;;;5009073;28;20458;-68
2021/10/07 05:53:08;;;;;;;10.32;6.68;;;11.20;99.90;;;;;;5009695;28;20145;-69
2021/10/07 05:55:34;;;;;;;11.65;6.10;;;11.20;99.90;;;;;;5009889;28;20395;-69
2021/10/07 05:58:00;;;;;;;9.70;6.05;;;11.30;99.90;;;;;;5010536;28;20045;-67
2021/10/07 06:00:26;;;;;;;13.30;6.80;;;11.40;99.90;;;;;;5011015;28;20069;-68
2021/10/07 06:02:52;;;;;;;15.20;7.32;;;11.40;99.90;;;;;;5009805;28;20407;-69
2021/10/07 06:05:18;;;;;;;9.35;6.40;;;11.40;99.90;;;;;;5010777;28;20115;-68
2021/10/07 06:07:44;;;;;;;18.80;8.23;;;11.30;99.90;;;;;;5009871;28;20355;-68
2021/10/07 06:10:10;;;;;;;10.75;6.65;;;11.30;99.90;;;;;;5010784;28;20069;-68
2021/10/07 06:12:36;;;;;;;9.38;6.28;;;11.30;99.90;;;;;;5010168;28;20022;-68
2021/10/07 06:15:03;;;;;;;10.93;6.97;;;11.20;99.90;;;;;;5010300;28;20113;-69
2021/10/07 06:17:29;;;;;;;10.95;7.20;;;11.30;99.90;;;;;;5010027;28;20456;-71
2021/10/07 06:20:01;;;;;;;15.25;7.88;;;11.30;99.90;;;;;;5009071;28;20061;-69
2021/10/07 06:22:26;;;;;;;15.10;8.13;;;11.30;99.90;;;;;;5009062;28;20032;-68
2021/10/07 06:24:53;;;;;;;13.13;8.23;;;11.30;99.90;;;;;;5009764;28;20101;-68
2021/10/07 06:27:19;;;;;;;13.13;8.35;;;11.20;99.90;;;;;;5008912;28;20091;-69
2021/10/07 06:29:45;;;;;;;11.40;8.23;;;11.20;99.90;;;;;;5009624;28;20029;-68
2021/10/07 06:32:11;;;;;;;16.27;10.18;;;11.20;99.90;;;;;;5008899;28;20029;-69
2021/10/07 06:34:36;;;;;;;17.85;9.68;;;11.20;99.90;;;;;;5008330;28;20034;-69
2021/10/07 06:37:02;;;;;;;17.65;10.20;;;11.20;99.90;;;;;;5011937;28;20068;-69
2021/10/07 06:39:28;;;;;;;15.07;8.88;;;11.20;99.90;;;;;;5012450;28;20065;-66
2021/10/07 06:41:53;;;;;;;15.60;9.50;;;11.60;99.90;;;;;;5013346;28;20026;-67
2021/10/07 06:44:19;;;;;;;17.67;9.77;;;11.60;99.90;;;;;;5012529;28;20038;-69
2021/10/07 06:46:45;;;;;;;26.33;10.73;;;11.40;99.90;;;;;;5010671;28;20321;-69
2021/10/07 06:49:11;;;;;;;23.75;12.50;;;11.30;99.90;;;;;;5012242;28;20105;-68
2021/10/07 06:51:37;;;;;;;21.85;10.45;;;11.30;99.90;;;;;;5010764;28;20443;-68
2021/10/07 06:54:02;;;;;;;27.65;10.80;;;11.40;99.90;;;;;;5013412;28;20038;-69
2021/10/07 06:56:28;;;;;;;16.80;11.75;;;11.30;99.90;;;;;;5012154;28;20121;-69
2021/10/07 06:58:54;;;;;;;17.95;10.82;;;11.40;99.90;;;;;;5011364;28;20034;-69
2021/10/07 07:01:25;;;;;;;19.00;10.35;;;11.40;99.90;;;;;;5011364;28;20030;-69
2021/10/07 07:03:52;;;;;;;19.70;11.40;;;11.40;99.90;;;;;;5010712;28;20046;-68
2021/10/07 07:06:19;;;;;;;16.80;11.85;;;11.50;99.90;;;;;;5012315;28;20041;-70
2021/10/07 07:08:45;;;;;;;21.23;11.88;;;11.50;99.90;;;;;;5013131;28;20084;-68
2021/10/07 07:11:11;;;;;;;18.55;10.80;;;11.40;99.90;;;;;;5011577;28;20491;-68
2021/10/07 07:13:37;;;;;;;16.60;11.35;;;11.50;99.90;;;;;;5013545;28;20029;-69
2021/10/07 07:16:02;;;;;;;16.05;11.55;;;11.60;99.90;;;;;;5012595;28;20022;-68
2021/10/07 07:18:28;;;;;;;16.30;11.77;;;11.70;99.90;;;;;;5009215;28;20114;-69
2021/10/07 07:20:54;;;;;;;20.08;11.75;;;12.00;99.90;;;;;;5011133;28;20079;-70
2021/10/07 07:23:19;;;;;;;18.02;11.05;;;12.20;99.90;;;;;;5011196;28;20121;-66
2021/10/07 07:25:45;;;;;;;16.73;11.45;;;12.40;99.90;;;;;;5005233;28;20184;-66
2021/10/07 07:28:11;;;;;;;17.88;10.95;;;12.50;99.90;;;;;;5012056;28;20368;-64
2021/10/07 07:30:37;;;;;;;18.15;12.35;;;12.70;99.90;;;;;;5011248;28;20044;-66
2021/10/07 07:33:03;;;;;;;19.42;14.00;;;12.80;99.90;;;;;;5010771;28;20053;-68
2021/10/07 07:35:31;;;;;;;16.23;12.70;;;12.70;99.90;;;;;;5006161;28;20216;-71
2021/10/07 07:37:58;;;;;;;20.00;14.18;;;12.50;99.90;;;;;;5008816;28;20348;-69
2021/10/07 07:40:24;;;;;;;18.38;11.98;;;12.60;99.90;;;;;;5005022;28;20033;-69
2021/10/07 07:42:49;;;;;;;19.38;13.27;;;12.80;99.90;;;;;;5010894;28;20379;-70
2021/10/07 07:45:15;;;;;;;14.98;11.52;;;13.00;99.90;;;;;;5011049;28;20036;-68
2021/10/07 07:47:42;;;;;;;17.52;12.30;;;13.00;99.90;;;;;;5010081;28;20022;-70
2021/10/07 07:50:09;;;;;;;19.48;11.20;;;13.00;99.90;;;;;;5006187;28;20097;-69
2021/10/07 07:52:35;;;;;;;14.82;11.15;;;13.20;99.90;;;;;;5008813;28;20077;-69
2021/10/07 07:55:01;;;;;;;16.88;11.45;;;13.60;99.90;;;;;;5011863;28;20037;-69
2021/10/07 07:57:26;;;;;;;15.48;11.68;;;13.40;99.90;;;;;;5006904;28;20038;-69
2021/10/07 07:59:52;;;;;;;17.48;12.10;;;13.40;99.90;;;;;;5005824;28;20037;-68
2021/10/07 08:02:18;;;;;;;16.42;11.65;;;13.40;99.90;;;;;;5003714;28;20038;-69
2021/10/07 08:04:45;;;;;;;15.73;11.77;;;13.20;99.90;;;;;;5009329;28;20046;-69
2021/10/07 08:07:10;;;;;;;12.95;9.90;;;13.30;99.90;;;;;;5009820;28;20029;-64
2021/10/07 08:09:38;;;;;;;19.42;11.68;;;13.50;99.90;;;;;;5009481;28;20387;-62
2021/10/07 08:12:05;;;;;;;17.63;12.52;;;13.60;99.90;;;;;;5008860;28;20029;-63
2021/10/07 08:14:31;;;;;;;17.95;12.65;;;13.70;99.90;;;;;;5008598;28;20064;-62
2021/10/07 08:16:58;;;;;;;12.60;9.93;;;13.80;99.90;;;;;;5000772;28;20014;-63
2021/10/07 08:19:24;;;;;;;14.20;10.98;;;14.50;99.90;;;;;;5005984;28;20029;-48
2021/10/07 08:21:50;;;;;;;13.93;9.30;;;14.00;99.90;;;;;;5011864;28;20033;-49
2021/10/07 08:24:22;;;;;;;13.73;9.23;;;14.40;99.90;;;;;;4994170;28;20535;-67
2021/10/07 08:26:48;;;;;;;13.15;9.90;;;14.40;99.90;;;;;;5009492;28;20435;-67
2021/10/07 08:29:15;;;;;;;16.65;10.50;;;14.40;99.90;;;;;;5010546;28;20034;-67
2021/10/07 08:31:40;;;;;;;11.55;8.77;;;14.40;99.90;;;;;;5009841;28;20108;-68
2021/10/07 08:34:06;;;;;;;12.27;9.60;;;14.70;99.90;;;;;;5011015;28;20038;-67
2021/10/07 08:36:36;;;;;;;10.63;8.93;;;14.90;99.90;;;;;;5010422;28;20426;-67
2021/10/07 08:39:02;;;;;;;10.32;8.68;;;15.30;99.90;;;;;;5011804;28;20337;-68
2021/10/07 08:41:28;;;;;;;12.35;8.35;;;16.00;99.90;;;;;;5010440;28;20061;-67
2021/10/07 08:43:54;;;;;;;10.68;8.65;;;16.20;99.90;;;;;;5009876;28;20038;-68
2021/10/07 08:46:20;;;;;;;13.07;8.02;;;16.30;99.90;;;;;;5011676;28;20460;-68
2021/10/07 08:48:46;;;;;;;13.93;8.68;;;16.10;99.90;;;;;;5011282;28;20117;-69
2021/10/07 08:51:12;;;;;;;12.80;10.00;;;16.00;99.90;;;;;;5011808;28;20033;-68
2021/10/07 08:53:38;;;;;;;10.10;8.65;;;16.00;99.90;;;;;;5009388;28;20113;-69
2021/10/07 08:56:06;;;;;;;11.30;8.60;;;15.80;99.90;;;;;;5012066;28;20034;-68
2021/10/07 08:58:32;;;;;;;8.25;6.78;;;16.40;99.90;;;;;;5011507;28;20022;-69
2021/10/07 09:00:57;;;;;;;10.05;6.32;;;17.10;99.90;;;;;;5006732;28;20044;-68
2021/10/07 09:03:26;;;;;;;10.68;6.88;;;17.60;99.90;;;;;;5010547;28;20080;-69
2021/10/07 09:06:13;;;;;;;7.88;6.70;;;17.80;99.90;;;;;;5009326;28;20360;-68
2021/10/07 09:08:49;;;;;;;8.73;5.80;;;18.40;99.90;;;;;;5009645;28;20057;-69
2021/10/07 09:11:24;;;;;;;7.40;5.20;;;18.30;99.90;;;;;;5011410;28;20172;-67
2021/10/07 09:14:01;;;;;;;6.35;5.65;;;18.80;99.90;;;;;;5010921;28;20054;-68
2021/10/07 09:16:32;;;;;;;4.95;4.45;;;18.90;99.90;;;;;;5006921;28;20029;-68
2021/10/07 09:19:25;;;;;;;6.20;4.85;;;18.60;99.90;;;;;;5005326;28;20088;-68
2021/10/07 09:21:58;;;;;;;6.03;5.43;;;18.00;99.90;;;;;;4989722;28;20038;-71
2021/10/07 09:24:33;;;;;;;7.55;5.40;;;17.30;99.90;;;;;;4989839;28;20132;-68
2021/10/07 09:27:06;;;;;;;7.07;6.45;;;17.30;99.90;;;;;;4991079;28;20034;-67
2021/10/07 09:29:33;;;;;;;10.27;7.00;;;17.10;99.90;;;;;;4990066;28;20108;-67
2021/10/07 09:31:58;;;;;;;17.33;8.60;;;16.80;99.90;;;;;;4989180;28;20030;-68
2021/10/07 09:34:46;;;;;;;26.88;8.20;;;17.00;99.90;;;;;;4991723;28;20112;-69
2021/10/07 09:37:20;;;;;;;9.15;7.57;;;17.10;99.90;;;;;;4990074;28;20339;-68
2021/10/07 09:39:48;;;;;;;14.82;8.55;;;17.30;99.90;;;;;;4990689;28;20102;-69
2021/10/07 09:42:22;;;;;;;7.88;7.13;;;17.80;99.90;;;;;;4989992;28;20026;-68
2021/10/07 09:45:30;;;;;;;10.32;6.95;;;18.50;99.90;;;;;;4989371;28;20031;-68
2021/10/07 09:47:59;;;;;;;10.35;7.63;;;18.60;99.90;;;;;;4949336;28;20127;-68
2021/10/07 09:50:33;;;;;;;9.88;7.57;;;18.30;99.90;;;;;;5000468;28;20034;-67
2021/10/07 09:53:04;;;;;;;10.85;8.13;;;19.10;99.90;;;;;;4989519;28;20040;-69
2021/10/07 09:55:41;;;;;;;11.90;8.00;;;19.00;99.90;;;;;;4991215;28;20122;-68
2021/10/07 09:58:19;;;;;;;13.73;7.72;;;18.90;99.90;;;;;;4991436;28;20061;-67
2021/10/07 10:00:48;;;;;;;11.60;8.38;;;18.60;99.90;;;;;;4990818;28;20098;-68
2021/10/07 10:03:15;;;;;;;10.25;8.95;;;18.50;99.90;;;;;;4991307;28;20027;-68
2021/10/07 10:05:44;;;;;;;10.60;8.40;;;18.00;99.90;;;;;;4990590;28;20041;-69
2021/10/07 10:08:11;;;;;;;12.90;7.90;;;18.20;99.90;;;;;;4989932;28;20027;-68
2021/10/07 10:10:39;;;;;;;9.80;7.60;;;18.20;99.90;;;;;;4990019;28;20030;-68
2021/10/07 10:13:06;;;;;;;10.90;7.63;;;18.10;99.90;;;;;;4994298;28;20042;-68
2021/10/07 10:15:34;;;;;;;10.15;7.53;;;18.10;99.90;;;;;;4993743;28;20034;-67
2021/10/07 10:18:07;;;;;;;10.13;6.25;;;18.00;99.90;;;;;;4992983;28;20295;-68
2021/10/07 10:20:37;;;;;;;12.50;8.60;;;18.00;99.90;;;;;;4996204;28;20027;-68
2021/10/07 10:23:16;;;;;;;10.18;7.72;;;17.90;99.90;;;;;;4994186;28;20112;-68
2021/10/07 10:26:10;;;;;;;9.40;7.40;;;17.70;99.90;;;;;;4994683;28;20043;-70
2021/10/07 10:28:38;;;;;;;8.82;7.57;;;17.70;99.90;;;;;;4994690;28;20026;-67
2021/10/07 10:31:06;;;;;;;9.07;7.18;;;17.70;99.90;;;;;;5006248;28;20436;-68
2021/10/07 10:33:35;;;;;;;7.80;7.00;;;17.60;99.90;;;;;;5002522;28;20044;-68
2021/10/07 10:36:01;;;;;;;7.35;6.65;;;17.90;99.90;;;;;;5011565;28;20257;-69
2021/10/07 10:38:39;;;;;;;11.73;6.65;;;17.80;99.90;;;;;;5014239;28;20029;-68
2021/10/07 10:41:10;;;;;;;6.88;6.00;;;18.00;99.90;;;;;;5007686;28;20456;-68
2021/10/07 10:43:36;;;;;;;5.53;4.47;;;18.70;99.90;;;;;;5004382;28;20033;-69
2021/10/07 10:46:02;;;;;;;6.80;5.13;;;19.20;99.90;;;;;;5013198;28;20309;-68
2021/10/07 10:48:44;;;;;;;4.25;3.83;;;18.80;99.90;;;;;;5012493;28;20033;-69
2021/10/07 10:51:15;;;;;;;7.15;3.22;;;19.30;99.50;;;;;;5013738;28;20022;-68
2021/10/07 10:54:04;;;;;;;6.13;3.88;;;18.90;99.90;;;;;;5013727;28;20026;-68
2021/10/07 10:56:32;;;;;;;3.88;2.97;;;18.60;99.90;;;;;;5012196;28;20080;-69
2021/10/07 10:59:21;;;;;;;5.15;3.25;;;19.20;99.90;;;;;;5006491;28;20469;-69
2021/10/07 11:02:15;;;;;;;3.90;3.40;;;20.00;98.70;;;;;;5006959;28;20026;-69
2021/10/07 11:04:49;;;;;;;9.10;3.38;;;20.70;97.40;;;;;;5001581;28;20092;-68
2021/10/07 11:07:16;;;;;;;9.48;3.20;;;21.50;97.50;;;;;;5001224;28;20228;-69
2021/10/07 11:10:13;;;;;;;3.10;2.53;;;22.00;95.40;;;;;;5001193;28;20065;-78
2021/10/07 11:12:44;;;;;;;5.35;2.25;;;21.60;95.00;;;;;;5000103;28;20053;-69
2021/10/07 11:15:11;;;;;;;4.05;1.85;;;22.00;95.60;;;;;;5003832;28;20041;-69
2021/10/07 11:17:41;;;;;;;2.55;1.83;;;22.10;95.00;;;;;;5001643;28;20030;-69
2021/10/07 11:20:13;;;;;;;3.63;2.30;;;22.60;94.80;;;;;;5001675;28;20132;-70
2021/10/07 11:22:38;;;;;;;;;;;22.30;93.40;;;;;;5000349;28;20061;-69
2021/10/07 11:25:06;;;;;;;3.83;2.30;;;22.00;93.20;;;;;;5002495;28;19921;-69
2021/10/07 11:27:39;;;;;;;1.90;1.70;;;21.60;94.20;;;;;;5001073;28;20018;-69
2021/10/07 11:30:08;;;;;;;2.65;2.45;;;21.90;93.30;;;;;;5001824;28;20418;-69
2021/10/07 11:32:35;;;;;;;6.35;2.17;;;22.30;93.40;;;;;;5000377;28;20026;-68
2021/10/07 11:35:10;;;;;;;7.32;2.90;;;22.70;93.40;;;;;;4997889;28;20100;-68
2021/10/07 11:37:56;;;;;;;3.17;1.77;;;22.20;93.50;;;;;;5001885;28;20439;-69
2021/10/07 11:40:32;;;;;;;2.72;2.13;;;21.60;94.40;;;;;;5001302;28;20122;-68
2021/10/07 11:43:02;;;;;;;4.07;3.15;;;21.30;94.50;;;;;;4998093;28;20022;-69
2021/10/07 11:45:33;;;;;;;5.53;2.63;;;20.90;94.20;;;;;;5002936;28;20105;-69
2021/10/07 11:48:01;;;;;;;8.85;2.53;;;20.50;96.00;;;;;;5000317;28;20420;-68
2021/10/07 11:50:27;;;;;;;21.83;3.80;;;20.80;95.50;;;;;;4999166;28;20422;-69
2021/10/07 11:52:56;;;;;;;5.32;1.98;;;20.50;94.90;;;;;;5000013;28;20022;-69
2021/10/07 11:55:24;;;;;;;5.03;3.40;;;20.30;95.40;;;;;;4998727;28;20041;-69
2021/10/07 11:57:54;;;;;;;5.18;3.10;;;20.10;96.00;;;;;;5000232;28;20026;-69
2021/10/07 12:00:43;;;;;;;4.90;1.80;;;20.00;95.90;;;;;;5004819;28;20068;-69
2021/10/07 12:03:20;;;;;;;3.80;2.25;;;19.60;96.40;;;;;;5007440;28;20041;-69
2021/10/07 12:05:53;;;;;;;3.13;2.40;;;19.40;97.20;;;;;;5011756;28;20037;-69
2021/10/07 12:08:19;;;;;;;6.68;2.92;;;19.20;97.20;;;;;;5010925;28;20038;-69
2021/10/07 12:10:55;;;;;;;3.70;2.55;;;20.00;96.80;;;;;;5009609;28;20048;-70
2021/10/07 12:13:27;;;;;;;6.65;2.15;;;20.60;96.10;;;;;;4991097;28;20034;-69
2021/10/07 12:15:59;;;;;;;5.70;2.35;;;20.60;95.30;;;;;;4992037;28;20041;-69
2021/10/07 12:18:27;;;;;;;13.48;2.50;;;20.40;95.30;;;;;;4990730;28;20094;-69
2021/10/07 12:21:05;;;;;;;4.40;2.42;;;21.10;94.90;;;;;;5007882;28;20105;-69
2021/10/07 12:23:46;;;;;;;4.07;1.90;;;21.60;94.20;;;;;;5010279;28;20087;-69
2021/10/07 12:26:12;;;;;;;2.33;2.07;;;22.10;94.00;;;;;;5011872;28;20034;-68
2021/10/07 12:28:43;;;;;;;5.45;2.70;;;22.10;93.40;;;;;;5010493;28;20426;-68
2021/10/07 12:31:09;;;;;;;1.65;1.35;;;22.80;93.10;;;;;;5011803;28;20137;-69
2021/10/07 12:33:35;;;;;;;2.63;1.48;;;23.10;91.60;;;;;;5011264;28;20121;-70
2021/10/07 12:36:05;;;;;;;2.95;1.65;;;22.70;91.40;;;;;;5010559;28;20038;-68
2021/10/07 12:38:52;;;;;;;5.80;1.67;;;22.80;91.30;;;;;;5009970;28;20443;-70
2021/10/07 12:41:33;;;;;;;2.38;1.95;;;22.90;91.00;;;;;;5011285;28;20037;-70
2021/10/07 12:43:59;;;;;;;1.67;1.33;;;21.70;91.40;;;;;;5010362;28;20029;-70
2021/10/07 12:46:26;;;;;;;2.42;1.40;;;22.80;90.40;;;;;;5011936;28;20475;-71
2021/10/07 12:48:54;;;;;;;3.60;1.40;;;22.30;90.40;;;;;;5011538;28;20117;-70